Time;durP1;ratioP1;P1;durP2;ratioP2;P2;SDS_P1;SDS_P2;PMS_P1;PMS_P2;Temp;Humidity;BMP_temperature;BMP_pressure;BME280_temperature;BME280_humidity;BME280_pressure;Samples;Min_cycle;Max_cycle;Signal;HPM_P1;HPM_P2
2021/05/12 00:00:00;;;;;;;6.70;3.20;;;;;;;;;;5082236;28;20021;-73
2021/05/12 00:02:26;;;;;;;6.13;2.90;;;;;;;;;;5075471;28;20020;-73
2021/05/12 00:04:51;;;;;;;5.22;2.72;;;;;;;;;;5074701;28;20021;-73
2021/05/12 00:07:16;;;;;;;8.80;2.70;;;;;;;;;;5073213;28;20024;-73
2021/05/12 00:09:42;;;;;;;4.45;2.35;;;;;;;;;;5075062;28;20028;-73
2021/05/12 00:12:07;;;;;;;5.28;2.92;;;;;;;;;;5075734;28;20047;-73
2021/05/12 00:14:33;;;;;;;5.82;2.65;;;;;;;;;;5058573;28;20078;-73
2021/05/12 00:17:00;;;;;;;5.47;2.72;;;;;;;;;;5074783;28;20026;-73
2021/05/12 00:19:26;;;;;;;6.00;2.90;;;;;;;;;;5074039;28;20020;-73
2021/05/12 00:21:58;;;;;;;5.72;3.10;;;;;;;;;;5095558;28;20023;-73
2021/05/12 00:24:24;;;;;;;5.97;3.20;;;;;;;;;;5095950;28;20050;-73
2021/05/12 00:26:49;;;;;;;3.63;2.70;;;;;;;;;;5056814;28;20025;-73
2021/05/12 00:29:17;;;;;;;6.00;2.88;;;;;;;;;;5071661;28;20032;-73
2021/05/12 00:31:43;;;;;;;6.07;3.05;;;;;;;;;;5056370;28;20376;-73
2021/05/12 00:34:08;;;;;;;5.65;2.90;;;;;;;;;;5075721;28;20032;-73
2021/05/12 00:36:34;;;;;;;6.70;2.70;;;;;;;;;;5074585;28;20128;-72
2021/05/12 00:39:02;;;;;;;6.75;2.70;;;;;;;;;;5083502;28;20052;-73
2021/05/12 00:41:28;;;;;;;3.03;2.30;;;;;;;;;;5058504;28;20021;-73
2021/05/12 00:43:54;;;;;;;5.68;2.40;;;;;;;;;;5075738;28;20024;-73
2021/05/12 00:46:20;;;;;;;4.50;2.42;;;;;;;;;;5096643;28;20023;-73
2021/05/12 00:48:45;;;;;;;5.97;2.50;;;;;;;;;;5095286;28;20016;-73
2021/05/12 00:51:10;;;;;;;4.70;2.15;;;;;;;;;;5082423;28;20435;-73
2021/05/12 00:53:36;;;;;;;4.15;2.30;;;;;;;;;;5082757;28;20229;-73
2021/05/12 00:56:02;;;;;;;5.25;2.25;;;;;;;;;;5075606;28;20366;-73
2021/05/12 00:58:28;;;;;;;5.63;2.15;;;;;;;;;;5073142;28;20123;-73
2021/05/12 01:00:53;;;;;;;5.93;2.47;;;;;;;;;;5077050;28;20036;-73
2021/05/12 01:03:18;;;;;;;4.65;2.17;;;;;;;;;;5077754;28;20162;-73
2021/05/12 01:05:49;;;;;;;4.55;2.30;;;;;;;;;;5072720;28;20156;-73
2021/05/12 01:08:15;;;;;;;7.25;2.05;;;;;;;;;;5082023;28;20039;-73
2021/05/12 01:10:41;;;;;;;4.10;2.20;;;;;;;;;;5095352;28;20016;-73
2021/05/12 01:13:06;;;;;;;6.65;2.20;;;;;;;;;;5078312;28;20021;-73
2021/05/12 01:15:31;;;;;;;5.57;1.83;;;;;;;;;;5073945;28;20034;-73
2021/05/12 01:18:16;;;;;;;4.28;1.70;;;;;;;;;;5074403;28;20020;-73
2021/05/12 01:20:51;;;;;;;3.53;2.00;;;;;;;;;;5072268;28;20024;-73
2021/05/12 01:23:19;;;;;;;2.83;1.67;;;;;;;;;;5073672;28;20268;-73
2021/05/12 01:25:44;;;;;;;4.00;1.85;;;;;;;;;;5073068;28;20017;-73
2021/05/12 01:28:10;;;;;;;3.70;1.83;;;;;;;;;;5074954;28;20097;-73
2021/05/12 01:30:35;;;;;;;3.95;1.92;;;;;;;;;;5073102;28;20035;-72
2021/05/12 01:33:01;;;;;;;4.90;1.80;;;;;;;;;;5073051;28;20063;-73
2021/05/12 01:35:27;;;;;;;4.18;1.45;;;;;;;;;;5073740;28;20039;-73
2021/05/12 01:37:52;;;;;;;4.38;2.03;;;;;;;;;;5072949;28;20366;-73
2021/05/12 01:40:17;;;;;;;4.25;1.80;;;;;;;;;;5072742;28;20024;-73
2021/05/12 01:42:43;;;;;;;4.20;1.67;;;;;;;;;;5073980;28;20016;-73
2021/05/12 01:45:09;;;;;;;4.07;1.77;;;;;;;;;;5073477;28;20354;-73
2021/05/12 01:47:34;;;;;;;3.22;1.77;;;;;;;;;;5074328;28;20025;-73
2021/05/12 01:50:04;;;;;;;3.22;1.75;;;;;;;;;;5072936;28;20024;-73
2021/05/12 01:52:30;;;;;;;6.65;1.80;;;;;;;;;;5072802;28;20028;-73
2021/05/12 01:54:55;;;;;;;5.10;2.00;;;;;;;;;;5073198;28;20047;-73
2021/05/12 01:57:20;;;;;;;4.95;1.65;;;;;;;;;;5055569;28;20080;-73
2021/05/12 01:59:45;;;;;;;4.10;1.83;;;;;;;;;;5056451;28;20024;-73
2021/05/12 02:02:11;;;;;;;5.13;1.88;;;;;;;;;;5072511;28;20050;-73
2021/05/12 02:04:39;;;;;;;3.33;1.95;;;;;;;;;;5073809;28;20078;-73
2021/05/12 02:07:04;;;;;;;3.08;1.85;;;;;;;;;;5083386;28;20107;-73
2021/05/12 02:09:34;;;;;;;4.68;1.90;;;;;;;;;;5093372;28;20120;-74
2021/05/12 02:11:59;;;;;;;4.10;1.95;;;;;;;;;;5082125;28;20096;-73
2021/05/12 02:14:25;;;;;;;3.50;1.92;;;;;;;;;;5072934;28;20052;-73
2021/05/12 02:16:50;;;;;;;3.92;2.00;;;;;;;;;;5073530;28;20071;-73
2021/05/12 02:19:15;;;;;;;5.93;2.03;;;;;;;;;;5056403;28;20036;-73
2021/05/12 02:21:42;;;;;;;3.25;1.88;;;;;;;;;;5073437;28;20053;-73
2021/05/12 02:24:08;;;;;;;5.78;1.90;;;;;;;;;;5091437;28;20034;-73
2021/05/12 02:26:33;;;;;;;4.80;1.70;;;;;;;;;;5094236;28;20102;-73
2021/05/12 02:28:59;;;;;;;5.00;1.88;;;;;;;;;;5077028;28;20044;-73
2021/05/12 02:31:24;;;;;;;4.30;1.90;;;;;;;;;;5086579;28;20028;-73
2021/05/12 02:33:49;;;;;;;3.97;1.90;;;;;;;;;;5079995;28;20032;-73
2021/05/12 02:36:15;;;;;;;4.93;2.10;;;;;;;;;;5072723;28;20035;-73
2021/05/12 02:38:40;;;;;;;2.55;1.60;;;;;;;;;;5071870;28;20425;-73
2021/05/12 02:41:07;;;;;;;3.33;1.90;;;;;;;;;;5071665;28;20113;-73
2021/05/12 02:43:32;;;;;;;6.97;1.80;;;;;;;;;;5073660;28;20017;-73
2021/05/12 02:45:57;;;;;;;4.07;1.98;;;;;;;;;;5069086;28;20541;-73
2021/05/12 02:48:23;;;;;;;4.00;1.73;;;;;;;;;;5078478;28;20036;-73
2021/05/12 02:50:48;;;;;;;5.68;1.88;;;;;;;;;;5078584;28;20025;-73
2021/05/12 02:53:13;;;;;;;4.22;2.03;;;;;;;;;;5080659;28;20047;-73
2021/05/12 02:55:39;;;;;;;3.33;1.60;;;;;;;;;;5080461;28;20458;-73
2021/05/12 02:58:06;;;;;;;2.50;1.70;;;;;;;;;;5081055;28;20051;-73
2021/05/12 03:00:32;;;;;;;3.28;1.75;;;;;;;;;;5073779;28;20052;-73
2021/05/12 03:02:57;;;;;;;3.90;1.70;;;;;;;;;;5085813;28;20025;-73
2021/05/12 03:05:23;;;;;;;4.00;2.05;;;;;;;;;;5074810;28;20031;-73
2021/05/12 03:07:49;;;;;;;4.68;1.90;;;;;;;;;;5073378;28;20094;-73
2021/05/12 03:10:15;;;;;;;3.95;1.80;;;;;;;;;;5094291;28;20031;-73
2021/05/12 03:12:41;;;;;;;4.50;1.90;;;;;;;;;;5073415;28;20327;-72
2021/05/12 03:15:08;;;;;;;4.75;1.83;;;;;;;;;;5081024;28;20426;-73
2021/05/12 03:17:34;;;;;;;3.60;2.00;;;;;;;;;;5073100;28;20496;-73
2021/05/12 03:19:59;;;;;;;3.45;1.98;;;;;;;;;;5070708;28;20013;-73
2021/05/12 03:22:24;;;;;;;7.75;2.28;;;;;;;;;;5071556;28;20127;-73
2021/05/12 03:24:49;;;;;;;7.03;2.30;;;;;;;;;;5072479;28;20025;-73
2021/05/12 03:27:14;;;;;;;5.90;2.20;;;;;;;;;;5067409;28;20017;-73
2021/05/12 03:29:40;;;;;;;5.50;2.25;;;;;;;;;;5068755;28;20515;-73
2021/05/12 03:32:05;;;;;;;8.07;2.35;;;;;;;;;;5068925;28;20048;-73
2021/05/12 03:34:31;;;;;;;6.40;1.95;;;;;;;;;;5073348;28;20350;-73
2021/05/12 03:36:56;;;;;;;4.38;2.25;;;;;;;;;;5076385;28;20008;-72
2021/05/12 03:39:21;;;;;;;5.03;2.50;;;;;;;;;;5075153;28;20032;-73
2021/05/12 03:41:46;;;;;;;4.40;2.53;;;;;;;;;;5076041;28;20575;-72
2021/05/12 03:44:12;;;;;;;4.93;2.83;;;;;;;;;;5075639;28;20047;-73
2021/05/12 03:46:37;;;;;;;8.02;2.67;;;;;;;;;;5086308;28;20498;-72
2021/05/12 03:49:03;;;;;;;7.97;2.97;;;;;;;;;;5096817;28;20101;-73
2021/05/12 03:51:28;;;;;;;5.68;2.83;;;;;;;;;;5092462;28;20445;-73
2021/05/12 03:53:53;;;;;;;4.75;2.60;;;;;;;;;;5095939;28;20031;-73
2021/05/12 03:56:18;;;;;;;4.57;2.72;;;;;;;;;;5087367;28;20078;-73
2021/05/12 03:58:44;;;;;;;6.38;3.05;;;;;;;;;;5075754;28;20055;-73
2021/05/12 04:01:09;;;;;;;5.82;2.85;;;;;;;;;;5076166;28;20028;-73
2021/05/12 04:03:34;;;;;;;6.78;3.50;;;;;;;;;;5076219;28;20028;-73
2021/05/12 04:06:01;;;;;;;5.50;2.92;;;;;;;;;;5076805;28;20021;-73
2021/05/12 04:08:26;;;;;;;9.73;3.58;;;;;;;;;;5075300;28;20032;-73
2021/05/12 04:10:52;;;;;;;5.40;3.10;;;;;;;;;;5075105;28;20024;-73
2021/05/12 04:13:18;;;;;;;6.95;3.10;;;;;;;;;;5075097;28;20438;-73
2021/05/12 04:15:43;;;;;;;6.30;3.00;;;;;;;;;;5075144;28;20050;-73
2021/05/12 04:18:08;;;;;;;7.57;3.70;;;;;;;;;;5074596;28;20023;-73
2021/05/12 04:20:34;;;;;;;7.57;3.40;;;;;;;;;;5074176;28;20521;-73
2021/05/12 04:22:59;;;;;;;5.47;3.30;;;;;;;;;;5074785;28;20016;-73
2021/05/12 04:25:24;;;;;;;5.20;2.92;;;;;;;;;;5074386;28;20081;-73
2021/05/12 04:27:50;;;;;;;4.43;3.00;;;;;;;;;;5074576;28;20116;-73
2021/05/12 04:30:17;;;;;;;8.60;3.40;;;;;;;;;;5076077;28;20107;-73
2021/05/12 04:32:44;;;;;;;4.50;3.22;;;;;;;;;;5073652;28;20020;-74
2021/05/12 04:35:11;;;;;;;5.13;3.30;;;;;;;;;;5074882;28;20401;-74
2021/05/12 04:37:36;;;;;;;5.05;3.05;;;;;;;;;;5074032;28;20560;-74
2021/05/12 04:40:01;;;;;;;4.97;3.53;;;;;;;;;;5074899;28;20103;-74
2021/05/12 04:42:27;;;;;;;9.57;3.55;;;;;;;;;;5074235;28;20339;-74
2021/05/12 04:44:52;;;;;;;9.52;2.97;;;;;;;;;;5073885;28;20027;-74
2021/05/12 04:47:18;;;;;;;4.85;3.13;;;;;;;;;;5073783;28;20024;-74
2021/05/12 04:49:43;;;;;;;6.35;3.30;;;;;;;;;;5075572;28;20021;-74
2021/05/12 04:52:09;;;;;;;8.65;3.45;;;;;;;;;;5074655;28;20159;-74
2021/05/12 04:54:34;;;;;;;7.03;3.50;;;;;;;;;;5076257;28;20025;-74
2021/05/12 04:57:00;;;;;;;5.38;2.97;;;;;;;;;;5053215;28;20045;-74
2021/05/12 04:59:25;;;;;;;6.53;3.13;;;;;;;;;;5070928;28;20035;-74
2021/05/12 05:01:51;;;;;;;3.85;2.90;;;;;;;;;;5068463;28;20408;-74
2021/05/12 05:04:17;;;;;;;7.68;3.05;;;;;;;;;;5074212;28;20501;-74
2021/05/12 05:06:43;;;;;;;7.30;2.95;;;;;;;;;;5073744;28;20020;-73
2021/05/12 05:09:09;;;;;;;5.55;3.10;;;;;;;;;;5082072;28;20450;-73
2021/05/12 05:11:34;;;;;;;6.53;3.10;;;;;;;;;;5094145;28;20024;-74
2021/05/12 05:14:00;;;;;;;3.55;2.38;;;;;;;;;;5087425;28;20559;-73
2021/05/12 05:16:27;;;;;;;5.82;2.80;;;;;;;;;;5063182;28;20035;-74
2021/05/12 05:18:52;;;;;;;6.57;3.13;;;;;;;;;;5077138;28;20028;-74
2021/05/12 05:21:18;;;;;;;8.23;2.80;;;;;;;;;;5088236;28;21643;-75
2021/05/12 05:23:44;;;;;;;5.68;2.90;;;;;;;;;;5074416;28;20031;-74
2021/05/12 05:26:09;;;;;;;3.50;2.80;;;;;;;;;;5074167;28;20584;-75
2021/05/12 05:28:35;;;;;;;7.43;3.13;;;;;;;;;;5090630;28;20032;-74
2021/05/12 05:31:00;;;;;;;5.70;2.83;;;;;;;;;;5071134;28;20397;-74
2021/05/12 05:33:25;;;;;;;6.10;2.78;;;;;;;;;;5054497;28;20025;-74
2021/05/12 05:35:50;;;;;;;6.63;2.85;;;;;;;;;;5072788;28;20039;-75
2021/05/12 05:38:16;;;;;;;7.00;2.80;;;;;;;;;;5072719;28;20052;-74
2021/05/12 05:40:41;;;;;;;5.10;3.00;;;;;;;;;;5072803;28;20054;-74
2021/05/12 05:43:08;;;;;;;5.47;2.80;;;;;;;;;;5057080;28;20345;-74
2021/05/12 05:45:34;;;;;;;4.05;3.00;;;;;;;;;;5075853;28;20016;-75
2021/05/12 05:48:00;;;;;;;5.00;3.00;;;;;;;;;;5090805;28;20492;-74
2021/05/12 05:50:25;;;;;;;5.35;3.08;;;;;;;;;;5073510;28;20115;-74
2021/05/12 05:52:56;;;;;;;5.10;3.50;;;;;;;;;;5089180;28;20024;-74
2021/05/12 05:55:22;;;;;;;4.78;3.08;;;;;;;;;;5093280;28;20024;-74
2021/05/12 05:57:48;;;;;;;6.95;3.03;;;;;;;;;;5077502;28;20102;-74
2021/05/12 06:00:13;;;;;;;5.18;2.85;;;;;;;;;;5074289;28;20020;-74
2021/05/12 06:02:38;;;;;;;5.53;3.03;;;;;;;;;;5062203;28;20032;-74
2021/05/12 06:05:04;;;;;;;5.32;3.20;;;;;;;;;;5075655;28;20031;-74
2021/05/12 06:07:30;;;;;;;7.45;3.45;;;;;;;;;;5072058;28;20480;-74
2021/05/12 06:09:55;;;;;;;4.38;3.22;;;;;;;;;;5084748;28;20020;-74
2021/05/12 06:12:20;;;;;;;5.45;3.28;;;;;;;;;;5083791;28;20035;-73
2021/05/12 06:14:46;;;;;;;6.80;3.17;;;;;;;;;;5073450;28;20634;-74
2021/05/12 06:17:11;;;;;;;7.40;3.10;;;;;;;;;;5055848;28;20362;-74
2021/05/12 06:19:36;;;;;;;6.70;3.40;;;;;;;;;;5072030;28;20043;-74
2021/05/12 06:22:02;;;;;;;5.55;3.63;;;;;;;;;;5056209;28;20024;-74
2021/05/12 06:24:27;;;;;;;6.97;3.70;;;;;;;;;;5075420;28;20085;-74
2021/05/12 06:26:54;;;;;;;5.55;3.75;;;;;;;;;;5072428;28;20031;-74
2021/05/12 06:29:19;;;;;;;7.10;3.95;;;;;;;;;;5072300;28;20103;-74
2021/05/12 06:31:44;;;;;;;7.30;4.35;;;;;;;;;;5087615;28;20070;-74
2021/05/12 06:34:10;;;;;;;7.80;4.30;;;;;;;;;;5093383;28;20035;-74
2021/05/12 06:36:35;;;;;;;6.13;3.15;;;;;;;;;;5093126;28;20071;-73
2021/05/12 06:39:00;;;;;;;7.85;4.00;;;;;;;;;;5093558;28;20032;-74
2021/05/12 06:41:29;;;;;;;6.38;4.00;;;;;;;;;;5072536;28;20066;-74
2021/05/12 06:43:55;;;;;;;8.07;4.13;;;;;;;;;;5073425;28;20082;-74
2021/05/12 06:46:20;;;;;;;9.18;4.10;;;;;;;;;;5072647;28;20032;-73
2021/05/12 06:48:45;;;;;;;7.45;3.90;;;;;;;;;;5073642;28;20331;-73
2021/05/12 06:51:12;;;;;;;5.35;4.00;;;;;;;;;;5071346;28;20063;-74
2021/05/12 06:53:37;;;;;;;6.50;3.70;;;;;;;;;;5088326;28;20024;-74
2021/05/12 06:56:03;;;;;;;6.50;3.90;;;;;;;;;;5076881;28;20039;-74
2021/05/12 06:58:28;;;;;;;6.90;3.83;;;;;;;;;;5073024;28;20074;-73
2021/05/12 07:00:54;;;;;;;7.05;3.53;;;;;;;;;;5076812;28;20028;-74
2021/05/12 07:03:21;;;;;;;6.53;3.50;;;;;;;;;;5077104;28;20017;-74
2021/05/12 07:05:47;;;;;;;7.28;3.58;;;;;;;;;;5079942;28;20017;-74
2021/05/12 07:08:12;;;;;;;5.70;3.50;;;;;;;;;;5059390;28;20032;-74
2021/05/12 07:10:38;;;;;;;4.70;3.40;;;;;;;;;;5074496;28;20030;-74
2021/05/12 07:13:04;;;;;;;7.13;3.38;;;;;;;;;;5083205;28;20050;-74
2021/05/12 07:15:29;;;;;;;6.32;2.97;;;;;;;;;;5077168;28;20033;-74
2021/05/12 07:17:54;;;;;;;7.07;3.42;;;;;;;;;;5077851;28;20473;-75
2021/05/12 07:20:21;;;;;;;6.35;3.05;;;;;;;;;;5086061;28;20021;-76
2021/05/12 07:22:47;;;;;;;6.28;3.22;;;;;;;;;;5064750;28;20454;-75
2021/05/12 07:25:13;;;;;;;4.93;2.80;;;;;;;;;;5072922;28;20028;-75
2021/05/12 07:27:38;;;;;;;4.43;2.78;;;;;;;;;;5067321;28;20073;-75
2021/05/12 07:30:05;;;;;;;5.22;3.28;;;;;;;;;;5073423;28;20021;-75
2021/05/12 07:32:30;;;;;;;4.45;3.03;;;;;;;;;;5072718;28;20112;-75
2021/05/12 07:34:55;;;;;;;7.50;3.20;;;;;;;;;;5072830;28;20100;-75
2021/05/12 07:37:21;;;;;;;8.65;3.65;;;;;;;;;;5072708;28;20025;-75
2021/05/12 07:39:46;;;;;;;5.60;3.03;;;;;;;;;;5073572;28;20426;-75
2021/05/12 07:42:13;;;;;;;6.30;2.90;;;;;;;;;;5072627;28;20042;-75
2021/05/12 07:44:39;;;;;;;6.97;3.17;;;;;;;;;;5072571;28;20020;-75
2021/05/12 07:47:04;;;;;;;5.13;3.08;;;;;;;;;;5072452;28;20082;-75
2021/05/12 07:49:29;;;;;;;6.22;2.97;;;;;;;;;;5072602;28;20024;-75
2021/05/12 07:51:55;;;;;;;10.70;3.20;;;;;;;;;;5072178;28;20079;-75
2021/05/12 07:54:21;;;;;;;6.50;3.22;;;;;;;;;;5072930;28;20119;-75
2021/05/12 07:56:47;;;;;;;7.22;2.95;;;;;;;;;;5055373;28;20099;-75
2021/05/12 07:59:12;;;;;;;5.15;2.88;;;;;;;;;;5072373;28;20467;-75
2021/05/12 08:01:43;;;;;;;5.93;3.20;;;;;;;;;;5072202;28;20020;-75
2021/05/12 08:04:09;;;;;;;4.88;3.10;;;;;;;;;;5070069;28;20012;-76
2021/05/12 08:06:34;;;;;;;4.60;2.90;;;;;;;;;;5074124;28;20382;-75
2021/05/12 08:09:02;;;;;;;5.78;3.50;;;;;;;;;;5077272;28;20032;-76
2021/05/12 08:11:27;;;;;;;5.43;3.05;;;;;;;;;;5076549;28;20127;-75
2021/05/12 08:13:52;;;;;;;7.60;3.15;;;;;;;;;;5070478;28;20040;-75
2021/05/12 08:16:18;;;;;;;10.52;3.15;;;;;;;;;;5078936;28;20043;-76
2021/05/12 08:18:43;;;;;;;7.28;3.08;;;;;;;;;;5080685;28;20096;-75
2021/05/12 08:21:08;;;;;;;8.93;3.17;;;;;;;;;;5077647;28;20361;-76
2021/05/12 08:23:34;;;;;;;4.75;3.20;;;;;;;;;;5080463;28;20035;-75
2021/05/12 08:25:59;;;;;;;8.50;3.33;;;;;;;;;;5092230;28;20073;-75
2021/05/12 08:28:25;;;;;;;3.95;2.92;;;;;;;;;;5078402;28;20077;-75
2021/05/12 08:30:50;;;;;;;4.93;2.97;;;;;;;;;;5090983;28;20032;-75
2021/05/12 08:33:16;;;;;;;4.93;2.72;;;;;;;;;;5096484;28;20445;-75
2021/05/12 08:35:43;;;;;;;5.25;2.90;;;;;;;;;;5115018;27;20055;-76
2021/05/12 08:38:09;;;;;;;6.22;3.17;;;;;;;;;;5091304;28;20025;-75
2021/05/12 08:40:35;;;;;;;5.82;3.40;;;;;;;;;;5095535;28;20020;-75
2021/05/12 08:43:02;;;;;;;6.55;3.30;;;;;;;;;;5078196;28;20432;-75
2021/05/12 08:45:27;;;;;;;6.32;3.40;;;;;;;;;;5075713;28;20050;-75
2021/05/12 08:47:56;;;;;;;5.97;3.53;;;;;;;;;;5075318;28;20099;-75
2021/05/12 08:50:21;;;;;;;6.90;3.03;;;;;;;;;;5075203;28;20024;-75
2021/05/12 08:52:48;;;;;;;7.75;3.20;;;;;;;;;;5075445;28;20027;-75
2021/05/12 08:55:14;;;;;;;6.43;3.35;;;;;;;;;;5075349;28;20020;-75
2021/05/12 08:57:40;;;;;;;8.07;3.53;;;;;;;;;;5108556;28;20466;-75
2021/05/12 09:00:07;;;;;;;5.70;3.58;;;;;;;;;;5075337;28;20031;-75
2021/05/12 09:02:32;;;;;;;5.90;3.35;;;;;;;;;;5075557;28;20086;-75
2021/05/12 09:04:57;;;;;;;6.32;2.92;;;;;;;;;;5073411;28;20028;-75
2021/05/12 09:07:23;;;;;;;6.85;3.60;;;;;;;;;;5073588;28;20024;-75
2021/05/12 09:09:50;;;;;;;4.13;3.22;;;;;;;;;;5075438;28;20009;-75
2021/05/12 09:12:15;;;;;;;4.13;3.38;;;;;;;;;;5075986;28;20016;-75
2021/05/12 09:14:40;;;;;;;6.32;3.33;;;;;;;;;;5076463;28;20027;-75
2021/05/12 09:17:05;;;;;;;6.93;3.53;;;;;;;;;;5075208;28;20052;-75
2021/05/12 09:19:31;;;;;;;5.97;3.33;;;;;;;;;;5075288;28;20025;-75
2021/05/12 09:21:57;;;;;;;7.75;3.70;;;;;;;;;;5075815;28;20085;-75
2021/05/12 09:24:28;;;;;;;7.20;3.50;;;;;;;;;;5075323;28;20020;-75
2021/05/12 09:26:54;;;;;;;4.80;3.20;;;;;;;;;;5076085;28;20013;-75
2021/05/12 09:29:21;;;;;;;8.88;3.28;;;;;;;;;;5076182;28;20024;-75
2021/05/12 09:31:46;;;;;;;6.80;3.60;;;;;;;;;;5076034;28;20017;-75
2021/05/12 09:34:12;;;;;;;9.65;3.20;;;;;;;;;;5075864;28;20052;-75
2021/05/12 09:36:37;;;;;;;7.25;3.30;;;;;;;;;;5076132;28;20016;-75
2021/05/12 09:39:08;;;;;;;5.35;2.95;;;;;;;;;;5074841;28;20422;-75
2021/05/12 09:41:34;;;;;;;5.60;3.22;;;;;;;;;;5076015;28;20025;-75
2021/05/12 09:44:00;;;;;;;6.00;3.38;;;;;;;;;;5075672;28;20120;-75
2021/05/12 09:46:27;;;;;;;8.07;3.92;;;;;;;;;;5075722;28;20009;-75
2021/05/12 09:48:58;;;;;;;5.93;3.85;;;;;;;;;;5074777;28;20370;-75
2021/05/12 09:51:23;;;;;;;5.60;3.78;;;;;;;;;;5075825;28;20017;-75
2021/05/12 09:54:00;;;;;;;5.15;3.50;;;;;;;;;;5074831;28;20028;-75
2021/05/12 09:56:39;;;;;;;9.75;3.78;;;;;;;;;;5075674;28;20024;-75
2021/05/12 09:59:15;;;;;;;5.28;3.60;;;;;;;;;;5075621;28;20458;-75
2021/05/12 10:01:44;;;;;;;4.68;3.53;;;;;;;;;;5072214;28;20035;-75
2021/05/12 10:04:20;;;;;;;5.80;3.72;;;;;;;;;;5075343;28;20024;-75
2021/05/12 10:06:45;;;;;;;9.70;4.13;;;;;;;;;;5075500;28;20020;-75
2021/05/12 10:09:20;;;;;;;6.38;3.55;;;;;;;;;;5074384;28;20110;-75
2021/05/12 10:11:58;;;;;;;5.65;3.90;;;;;;;;;;5074522;28;20071;-75
2021/05/12 10:14:24;;;;;;;7.45;3.55;;;;;;;;;;5075471;28;20048;-75
2021/05/12 10:16:49;;;;;;;6.22;3.88;;;;;;;;;;5074431;28;20021;-75
2021/05/12 10:19:15;;;;;;;6.13;3.60;;;;;;;;;;5074276;28;20033;-75
2021/05/12 10:21:40;;;;;;;4.93;3.58;;;;;;;;;;5074234;28;20449;-75
2021/05/12 10:24:05;;;;;;;7.93;4.10;;;;;;;;;;5075224;28;20442;-75
2021/05/12 10:26:31;;;;;;;6.03;3.70;;;;;;;;;;5057544;28;20074;-75
2021/05/12 10:28:58;;;;;;;4.35;3.20;;;;;;;;;;5075307;28;20442;-75
2021/05/12 10:31:23;;;;;;;8.65;3.75;;;;;;;;;;5075335;28;20023;-75
2021/05/12 10:33:51;;;;;;;7.22;3.70;;;;;;;;;;5078009;28;20017;-75
2021/05/12 10:36:16;;;;;;;8.30;3.90;;;;;;;;;;5075409;28;20021;-75
2021/05/12 10:38:45;;;;;;;5.53;3.50;;;;;;;;;;5075338;28;20021;-75
2021/05/12 10:41:32;;;;;;;9.57;4.07;;;;;;;;;;5073887;28;20369;-75
2021/05/12 10:43:57;;;;;;;9.93;3.70;;;;;;;;;;5066256;28;20427;-75
2021/05/12 10:46:29;;;;;;;6.82;3.67;;;;;;;;;;5057189;28;20063;-75
2021/05/12 10:48:56;;;;;;;7.15;3.30;;;;;;;;;;5073951;28;20477;-75
2021/05/12 10:51:27;;;;;;;6.78;3.33;;;;;;;;;;5074182;28;20035;-74
2021/05/12 10:53:53;;;;;;;6.50;3.38;;;;;;;;;;5074797;28;20020;-75
2021/05/12 10:56:37;;;;;;;5.57;3.33;;;;;;;;;;5090679;28;20111;-74
2021/05/12 10:59:04;;;;;;;6.32;3.40;;;;;;;;;;5074289;28;20097;-75
2021/05/12 11:01:51;;;;;;;7.07;3.40;;;;;;;;;;5073724;28;20115;-76
2021/05/12 11:04:19;;;;;;;7.03;3.10;;;;;;;;;;5074939;28;20024;-75
2021/05/12 11:06:44;;;;;;;4.82;2.80;;;;;;;;;;5073721;28;20021;-75
2021/05/12 11:09:14;;;;;;;4.47;3.00;;;;;;;;;;5075073;28;20039;-75
2021/05/12 11:12:02;;;;;;;9.13;3.10;;;;;;;;;;5074325;28;20158;-75
2021/05/12 11:14:32;;;;;;;6.40;3.10;;;;;;;;;;5074434;28;20028;-75
2021/05/12 11:17:00;;;;;;;7.65;2.90;;;;;;;;;;5073715;28;20028;-75
2021/05/12 11:19:55;;;;;;;4.78;2.85;;;;;;;;;;5073636;28;20036;-75
2021/05/12 11:22:24;;;;;;;4.47;3.05;;;;;;;;;;5072216;28;20032;-77
2021/05/12 11:24:56;;;;;;;4.68;3.00;;;;;;;;;;5074492;28;20009;-77
2021/05/12 11:32:35;;;;;;;5.18;3.05;;;;;;;;;;5073355;28;20016;-75
2021/05/12 11:35:02;;;;;;;6.50;3.10;;;;;;;;;;5073409;28;20103;-75
2021/05/12 11:37:28;;;;;;;9.10;3.70;;;;;;;;;;5074274;28;20115;-75
2021/05/12 11:39:55;;;;;;;4.55;3.00;;;;;;;;;;5074401;28;20449;-75
2021/05/12 11:42:30;;;;;;;7.15;2.97;;;;;;;;;;5074273;28;20031;-75
2021/05/12 11:45:09;;;;;;;5.53;2.90;;;;;;;;;;5073525;28;20361;-75
2021/05/12 11:47:36;;;;;;;4.53;3.00;;;;;;;;;;5073277;28;20027;-75
2021/05/12 11:50:01;;;;;;;7.28;2.97;;;;;;;;;;5074070;28;20020;-75
2021/05/12 11:52:30;;;;;;;6.47;3.50;;;;;;;;;;5073241;28;20453;-75
2021/05/12 11:55:06;;;;;;;5.68;3.42;;;;;;;;;;5074262;28;20020;-76
2021/05/12 11:57:31;;;;;;;4.20;3.30;;;;;;;;;;5075547;28;20486;-78
2021/05/12 12:00:02;;;;;;;9.77;3.50;;;;;;;;;;5077929;28;20059;-75
2021/05/12 12:02:28;;;;;;;5.40;3.30;;;;;;;;;;5078125;28;20539;-75
2021/05/12 12:05:00;;;;;;;3.78;3.05;;;;;;;;;;5077071;28;20024;-75
2021/05/12 12:07:25;;;;;;;5.80;2.97;;;;;;;;;;5076875;28;20355;-75
2021/05/12 12:10:01;;;;;;;6.07;3.78;;;;;;;;;;5077700;28;20145;-75
2021/05/12 12:12:26;;;;;;;7.28;3.15;;;;;;;;;;5076470;28;20366;-75
2021/05/12 12:15:02;;;;;;;6.93;3.60;;;;;;;;;;5077484;28;20024;-75
2021/05/12 12:17:28;;;;;;;5.13;3.22;;;;;;;;;;5077676;28;20024;-75
2021/05/12 12:19:58;;;;;;;5.15;3.30;;;;;;;;;;5076711;28;20021;-75
2021/05/12 12:22:23;;;;;;;7.18;3.20;;;;;;;;;;5075905;28;20021;-75
2021/05/12 12:24:48;;;;;;;7.57;3.30;;;;;;;;;;5076572;28;20043;-75
2021/05/12 12:27:18;;;;;;;7.22;3.17;;;;;;;;;;5076558;28;20060;-75
2021/05/12 12:29:46;;;;;;;5.85;3.10;;;;;;;;;;5077354;28;20017;-75
2021/05/12 12:32:12;;;;;;;5.60;3.30;;;;;;;;;;5076987;28;20055;-75
2021/05/12 12:34:38;;;;;;;6.70;3.05;;;;;;;;;;5076313;28;20048;-75
2021/05/12 12:37:16;;;;;;;4.88;3.55;;;;;;;;;;5077306;28;20358;-75
2021/05/12 12:39:43;;;;;;;8.40;3.05;;;;;;;;;;5059866;28;20450;-75
2021/05/12 12:42:08;;;;;;;5.75;2.83;;;;;;;;;;5077290;28;20028;-75
2021/05/12 12:44:52;;;;;;;6.97;3.80;;;;;;;;;;5077350;28;20507;-75
2021/05/12 12:47:19;;;;;;;10.73;3.40;;;;;;;;;;5077094;28;20016;-75
2021/05/12 12:49:51;;;;;;;5.00;3.25;;;;;;;;;;5076030;28;20063;-75
2021/05/12 12:52:21;;;;;;;7.90;2.92;;;;;;;;;;5076042;28;20123;-75
2021/05/12 12:54:58;;;;;;;6.15;2.85;;;;;;;;;;5076130;28;20021;-75
2021/05/12 12:57:24;;;;;;;8.48;4.00;;;;;;;;;;5075734;28;20040;-76
2021/05/12 12:59:58;;;;;;;5.43;2.80;;;;;;;;;;5076203;28;20023;-75
2021/05/12 13:02:24;;;;;;;6.72;2.97;;;;;;;;;;5077167;28;20031;-75
2021/05/12 13:05:10;;;;;;;4.95;2.65;;;;;;;;;;5076044;28;20108;-75
2021/05/12 13:07:37;;;;;;;6.65;3.03;;;;;;;;;;5076489;28;20041;-75
2021/05/12 13:10:21;;;;;;;6.25;2.53;;;;;;;;;;5076723;28;20052;-75
2021/05/12 13:12:46;;;;;;;7.90;3.00;;;;;;;;;;5077727;28;20103;-75
2021/05/12 13:15:34;;;;;;;7.63;3.08;;;;;;;;;;5078375;28;20281;-75
2021/05/12 13:18:03;;;;;;;6.00;2.45;;;;;;;;;;5077290;28;20392;-75
2021/05/12 13:20:29;;;;;;;7.35;2.70;;;;;;;;;;5073181;28;20401;-75
2021/05/12 13:23:10;;;;;;;3.38;2.47;;;;;;;;;;5079526;28;20024;-75
2021/05/12 13:25:44;;;;;;;5.45;2.95;;;;;;;;;;5083187;28;20016;-75
2021/05/12 13:28:09;;;;;;;6.53;2.70;;;;;;;;;;5084076;28;20021;-75
2021/05/12 13:30:34;;;;;;;6.25;2.63;;;;;;;;;;5083333;28;20120;-75
2021/05/12 13:32:59;;;;;;;4.25;2.70;;;;;;;;;;5081503;28;20024;-76
2021/05/12 13:35:25;;;;;;;6.53;3.00;;;;;;;;;;5077014;28;20028;-75
2021/05/12 13:37:51;;;;;;;5.47;2.80;;;;;;;;;;5058735;28;20060;-75
2021/05/12 13:40:16;;;;;;;6.05;2.63;;;;;;;;;;5058868;28;20450;-75
2021/05/12 13:42:42;;;;;;;4.57;2.75;;;;;;;;;;5076053;28;20025;-75
2021/05/12 13:45:10;;;;;;;5.35;2.72;;;;;;;;;;5074806;28;20029;-75
2021/05/12 13:47:36;;;;;;;8.57;2.65;;;;;;;;;;5076051;28;20497;-75
2021/05/12 13:50:01;;;;;;;8.07;2.60;;;;;;;;;;5075933;28;20095;-75
2021/05/12 13:52:34;;;;;;;6.45;2.67;;;;;;;;;;5078887;28;20024;-75
2021/05/12 13:55:05;;;;;;;6.43;2.85;;;;;;;;;;5077458;28;20446;-75
2021/05/12 14:00:39;;;;;;;5.47;2.75;;;;;;;;;;5044129;28;20032;-75
2021/05/12 14:03:04;;;;;;;10.02;2.88;;;;;;;;;;5074726;28;20028;-75
2021/05/12 14:05:32;;;;;;;5.53;2.80;;;;;;;;;;5057806;28;20020;-75
2021/05/12 14:07:59;;;;;;;5.35;2.97;;;;;;;;;;5074512;28;20121;-75
2021/05/12 14:10:25;;;;;;;5.72;2.97;;;;;;;;;;5075254;28;20020;-75
2021/05/12 14:12:53;;;;;;;5.18;2.78;;;;;;;;;;5074634;28;20066;-77
2021/05/12 14:18:10;;;;;;;7.00;3.00;;;;;;;;;;5055879;28;20036;-77
2021/05/12 14:20:35;;;;;;;7.75;3.42;;;;;;;;;;5057251;28;20057;-77
2021/05/12 14:23:00;;;;;;;4.88;2.90;;;;;;;;;;5075175;28;20016;-77
2021/05/12 14:25:25;;;;;;;6.90;3.35;;;;;;;;;;5074039;28;20029;-77
2021/05/12 14:27:52;;;;;;;6.10;3.38;;;;;;;;;;5073897;28;20032;-77
2021/05/12 14:30:17;;;;;;;7.90;3.55;;;;;;;;;;5073950;28;20444;-77
2021/05/12 14:32:44;;;;;;;6.30;3.38;;;;;;;;;;5074934;28;20017;-77
2021/05/12 14:35:09;;;;;;;8.25;3.40;;;;;;;;;;5073838;28;20028;-77
2021/05/12 14:37:34;;;;;;;6.43;3.22;;;;;;;;;;5074888;28;20032;-76
2021/05/12 14:40:00;;;;;;;6.07;3.15;;;;;;;;;;5073983;28;20488;-77
2021/05/12 14:42:25;;;;;;;4.85;3.00;;;;;;;;;;5074018;28;20032;-77
2021/05/12 14:44:50;;;;;;;8.50;3.50;;;;;;;;;;5073923;28;20020;-77
2021/05/12 14:47:16;;;;;;;6.43;3.10;;;;;;;;;;5057216;28;20027;-77
2021/05/12 14:49:42;;;;;;;7.57;3.40;;;;;;;;;;5073962;28;20446;-77
2021/05/12 15:00:17;;;;;;;8.82;3.33;;;;;;;;;;5075143;28;20028;-76